Reinholds, Pennsylvania
Current Conditions -  °F | °C
As of 8:54 PM on Monday 20 Oct 2014 (Local Time) from KRDG Reporting Station
Overcast Overcast  
Wind Chill: 57°   Ceiling: 11000
Heat Index: 57°   Visibility: 10mi
Dew Point: 43°   Wind: 5mph
Humidity: 59%   Direction: 180°S
Pressure: 29.94"   Gusts: NA
Location:  40.27°N, 76.12°W
Report Text: KRDG 210054Z AUTO 18004KT 10SM OVC110 14/06 A2994 RMK AO2 SLP145 T01390061
Loading
Personal Weather Stations






























Interactive Weather Map
Tropical Storm Tracking
New forecast layout! Learn more

10-Day Weather Forecast

Advertisements
Track Severe Weather on mobile